Aviation Digital Data Service (ADDS)

Output produced by METARs form (1053 UTC 19 October 2017)
found at http://www.aviationweather.gov/adds/metars/
 
K5A6 191035Z AUTO 00000KT 10SM CLR 06/06 A3023 RMK AO2 T00550055
K5A6 191015Z AUTO 00000KT 10SM CLR 06/06 A3023 RMK AO2 T00550055
K5A6 190955Z AUTO 00000KT 10SM CLR 06/06 A3022 RMK AO2 T00550055
K5A6 190935Z AUTO 00000KT 10SM CLR 06/06 A3021 RMK AO2 T00550055
K5A6 190915Z AUTO 00000KT 10SM CLR 06/06 A3020 RMK AO2 T00550055
K5A6 190855Z AUTO 00000KT 10SM CLR 06/06 A3020 RMK AO2 T00610061
K5A6 190835Z AUTO 00000KT 10SM CLR 06/06 A3020 RMK AO2 T00610061
K5A6 190815Z AUTO 00000KT 10SM CLR 06/06 A3020 RMK AO2 T00640064
K5A6 190755Z AUTO 00000KT 10SM CLR 07/07 A3020 RMK AO2 T00650065
K5A6 190735Z AUTO 00000KT 10SM CLR 06/06 A3020 RMK AO2 T00620062
K5A6 190715Z AUTO 00000KT 10SM CLR 06/06 A3020 RMK AO2 T00640064
K5A6 190655Z AUTO 00000KT 10SM CLR 07/07 A3020 RMK AO2 T00680068
K5A6 190635Z AUTO 00000KT 10SM CLR 06/06 A3020 RMK AO2 T00630063
K5A6 190615Z AUTO 00000KT 10SM CLR 07/07 A3020 RMK AO2 T00690069
K5A6 190555Z AUTO 00000KT 10SM CLR 07/07 A3020 RMK AO2 T00700068 10148 20070 402340049
K5A6 190535Z AUTO 00000KT 10SM CLR 08/08 A3020 RMK AO2 T00780078
K5A6 190515Z AUTO 00000KT 10SM CLR 08/08 A3021 RMK AO2 T00810080
K5A6 190455Z AUTO 00000KT 10SM CLR 08/08 A3021 RMK AO2 T00830083
K5A6 190435Z AUTO 00000KT 10SM CLR 09/09 A3022 RMK AO2 T00870087
K5A6 190415Z AUTO 00000KT 10SM CLR 09/09 A3023 RMK AO2 T00880087
K5A6 190355Z AUTO 00000KT 10SM CLR 10/10 A3023 RMK AO2 T00960095
K5A6 190335Z AUTO 00000KT 10SM CLR 10/09 A3022 RMK AO2 T00970089
K5A6 190315Z AUTO 00000KT 10SM CLR 10/10 A3022 RMK AO2 T01030096
K5A6 190255Z AUTO 00000KT 10SM CLR 11/10 A3023 RMK AO2 T01050099
K5A6 190235Z AUTO 00000KT 10SM CLR 11/10 A3022 RMK AO2 T01100099
K5A6 190215Z AUTO 00000KT 10SM CLR 11/11 A3022 RMK AO2 T01100105
K5A6 190155Z AUTO 00000KT 10SM CLR 11/10 A3021 RMK AO2 T01120102
K5A6 190135Z AUTO 00000KT 10SM CLR 12/11 A3022 RMK AO2 T01200105
K5A6 190115Z AUTO 00000KT 10SM CLR 13/10 A3022 RMK AO2 T01250103
K5A6 190050Z AUTO 00000KT 10SM CLR 13/11 A3022 RMK AO2 T01270108
K5A6 190035Z AUTO 00000KT 10SM CLR 13/11 A3021 RMK AO2 T01340108
K5A6 190015Z AUTO 00000KT 10SM CLR 14/11 A3021 RMK AO2 T01400106
K5A6 182355Z AUTO 00000KT 10SM CLR 15/11 A3020 RMK AO2 T01520106 10234 20152
K5A6 182335Z AUTO 00000KT 10SM CLR 16/10 A3020 RMK AO2 T01620102
K5A6 182315Z AUTO 00000KT 10SM CLR 20/09 A3019 RMK AO2 T01950094
K5A6 182255Z AUTO 00000KT 10SM CLR 22/08 A3019 RMK AO2 T02150083
K5A6 182235Z AUTO 00000KT 10SM CLR 22/08 A3018 RMK AO2 T02200079
K5A6 182215Z AUTO 00000KT 10SM CLR 23/08 A3018 RMK AO2 T02250084
K5A6 182150Z AUTO 13003KT 10SM CLR 23/07 A3018 RMK AO2 T02270071
K5A6 182135Z AUTO 00000KT 10SM CLR 23/08 A3018 RMK AO2 T02300077
K5A6 182115Z AUTO 00000KT 10SM CLR 23/07 A3018 RMK AO2 T02310073
K5A6 182055Z AUTO 14003KT 10SM CLR 23/07 A3018 RMK AO2 T02310074
K5A6 182035Z AUTO 14003KT 10SM CLR 23/08 A3018 RMK AO2 T02320080
K5A6 182015Z AUTO 14006KT 10SM CLR 23/08 A3019 RMK AO2 T02270079
K5A6 181955Z AUTO 13004KT 10SM CLR 23/08 A3019 RMK AO2 T02340083
K5A6 181935Z AUTO 13003KT 10SM CLR 23/08 A3020 RMK AO2 T02300083
K5A6 181915Z AUTO 08003KT 10SM CLR 23/08 A3021 RMK AO2 T02300080
K5A6 181855Z AUTO 00000KT 10SM CLR 22/08 A3021 RMK AO2 T02240078
K5A6 181835Z AUTO 00000KT 10SM CLR 22/07 A3023 RMK AO2 T02210074
K5A6 181815Z AUTO 15003KT 10SM CLR 22/08 A3023 RMK AO2 T02200077
K5A6 181755Z AUTO 07003KT 10SM CLR 21/08 A3025 RMK AO2 T02140076 10214 20049
K5A6 181735Z AUTO 15006KT 10SM CLR 21/08 A3026 RMK AO2 T02120078
K5A6 181715Z AUTO 15004KT 10SM CLR 21/08 A3026 RMK AO2 T02100078
K5A6 181655Z AUTO 15003KT 10SM CLR 21/08 A3027 RMK AO2 T02060080
K5A6 181635Z AUTO 15005KT 10SM CLR 20/08 A3028 RMK AO2 T02000076
K5A6 181615Z AUTO 16007KT 10SM CLR 20/08 A3028 RMK AO2 T01960075
K5A6 181555Z AUTO 13003KT 10SM CLR 19/08 A3028 RMK AO2 T01920080
K5A6 181535Z AUTO 16007KT 10SM CLR 18/09 A3028 RMK AO2 T01830085
K5A6 181515Z AUTO 14005KT 10SM CLR 17/09 A3028 RMK AO2 T01720085
K5A6 181455Z AUTO 15005KT 10SM CLR 16/09 A3028 RMK AO2 T01600088
K5A6 181435Z AUTO 12003KT 10SM CLR 14/09 A3029 RMK AO2 T01440089
K5A6 181415Z AUTO 00000KT 10SM CLR 13/09 A3028 RMK AO2 T01330089
K5A6 181355Z AUTO 00000KT 10SM CLR 12/09 A3028 RMK AO2 T01210094
K5A6 181335Z AUTO 00000KT 10SM CLR 11/09 A3027 RMK AO2 T01070093
K5A6 181310Z AUTO 00000KT 10SM CLR 08/08 A3026 RMK AO2 T00750075
K5A6 181255Z AUTO 00000KT 10SM CLR 06/06 A3026 RMK AO2 T00580058
K5A6 181235Z AUTO 00000KT 10SM CLR 05/05 A3025 RMK AO2 T00520052
K5A6 181210Z AUTO 00000KT 10SM CLR 05/05 A3025 RMK AO2 T00510051
K5A6 181155Z AUTO 00000KT 10SM CLR 05/05 A3025 RMK AO2 T00520052 10083 20050
K5A6 181135Z AUTO 00000KT 10SM CLR 05/05 A3025 RMK AO2 T00500050
K5A6 181115Z AUTO 00000KT 10SM SCT001 06/06 A3025 RMK AO2 T00560056
K5A6 181055Z AUTO 00000KT 10SM SCT001 06/06 A3024 RMK AO2 T00600060
K5A6 181035Z AUTO 00000KT 10SM CLR 06/06 A3023 RMK AO2 T00600060
K5A6 181015Z AUTO 00000KT 10SM CLR 06/06 A3023 RMK AO2 T00600060
K5A6 180955Z AUTO 00000KT 10SM CLR 06/06 A3022 RMK AO2 T00610061
K5A6 180935Z AUTO 00000KT 10SM SCT001 06/06 A3022 RMK AO2 T00600060
K5A6 180915Z AUTO 00000KT 10SM CLR 05/05 A3023 RMK AO2 T00520052
K5A6 180855Z AUTO 00000KT 2 1/2SM BR CLR 06/06 A3023 RMK AO2 VIS 1V5 T00610061
K5A6 180835Z AUTO 00000KT 1 1/2SM BR VV007 06/06 A3023 RMK AO2 T00600060
K5A6 180815Z AUTO 00000KT 5SM BR CLR 06/06 A3023 RMK AO2 T00620062
K5A6 180755Z AUTO 00000KT 10SM CLR 07/07 A3023 RMK AO2 T00650065
K5A6 180735Z AUTO 00000KT 10SM CLR 07/07 A3023 RMK AO2 T00660066
K5A6 180715Z AUTO 00000KT 10SM CLR 07/07 A3023 RMK AO2 T00740074
K5A6 180655Z AUTO 00000KT 10SM CLR 07/07 A3023 RMK AO2 T00730073
K5A6 180635Z AUTO 00000KT 10SM CLR 08/08 A3023 RMK AO2 T00780078
K5A6 180615Z AUTO 00000KT 10SM CLR 08/08 A3023 RMK AO2 T00810081
K5A6 180555Z AUTO 00000KT 10SM CLR 08/08 A3023 RMK AO2 T00830083 10147 20079 402250070
K5A6 180535Z AUTO 00000KT 10SM CLR 08/08 A3023 RMK AO2 T00820082
K5A6 180515Z AUTO 00000KT 10SM CLR 08/08 A3023 RMK AO2 T00810081
K5A6 180455Z AUTO 00000KT 10SM CLR 08/08 A3023 RMK AO2 T00830083
K5A6 180440Z AUTO 00000KT 10SM CLR 09/09 A3023 RMK AO2 T00900090
K5A6 180415Z AUTO 00000KT 10SM CLR 09/09 A3023 RMK AO2 T00900090
K5A6 180355Z AUTO 00000KT 10SM CLR 09/09 A3023 RMK AO2 T00910091
K5A6 180335Z AUTO 00000KT 10SM CLR 09/09 A3023 RMK AO2 T00930093
K5A6 180315Z AUTO 00000KT 10SM CLR 10/10 A3024 RMK AO2 T00950095
K5A6 180255Z AUTO 00000KT 10SM CLR 10/10 A3024 RMK AO2 T01000100
K5A6 180235Z AUTO 00000KT 10SM CLR 10/10 A3023 RMK AO2 T01010101
K5A6 180215Z AUTO 00000KT 10SM CLR 10/10 A3023 RMK AO2 T01020102
K5A6 180155Z AUTO 00000KT 10SM CLR 11/11 A3022 RMK AO2 T01080107
K5A6 180135Z AUTO 00000KT 10SM CLR 11/11 A3022 RMK AO2 T01120108
K5A6 180115Z AUTO 00000KT 10SM CLR 12/11 A3021 RMK AO2 T01170109
K5A6 180055Z AUTO 00000KT 10SM CLR 13/11 A3021 RMK AO2 T01250113
K5A6 180035Z AUTO 00000KT 10SM CLR 13/11 A3021 RMK AO2 T01310111
K5A6 180015Z AUTO 00000KT 10SM CLR 14/11 A3020 RMK AO2 T01390111
K5A6 172355Z AUTO 00000KT 10SM CLR 15/11 A3020 RMK AO2 T01480109 10225 20148
K5A6 172335Z AUTO 00000KT 10SM CLR 17/10 A3020 RMK AO2 T01700103
K5A6 172315Z AUTO 00000KT 10SM CLR 20/09 A3020 RMK AO2 T01950093
K5A6 172255Z AUTO 00000KT 10SM CLR 21/09 A3020 RMK AO2 T02050090
K5A6 172235Z AUTO 00000KT 10SM CLR 21/09 A3020 RMK AO2 T02090089
K5A6 172215Z AUTO 07003KT 10SM CLR 22/09 A3020 RMK AO2 T02150087
K5A6 172155Z AUTO 00000KT 10SM CLR 22/08 A3020 RMK AO2 T02170084
K5A6 172135Z AUTO 06003KT 10SM CLR 22/09 A3020 RMK AO2 T02200090
K5A6 172115Z AUTO 05004KT 10SM CLR 22/09 A3020 RMK AO2 T02210088
K5A6 172055Z AUTO 05005KT 10SM CLR 22/09 A3020 RMK AO2 T02210086
K5A6 172035Z AUTO 07003KT 10SM CLR 22/08 A3021 RMK AO2 T02200083
K5A6 172015Z AUTO 04005KT 10SM CLR 22/09 A3021 RMK AO2 T02200088
K5A6 171955Z AUTO 07004KT 10SM CLR 22/08 A3022 RMK AO2 T02200081
K5A6 171935Z AUTO 00000KT 10SM CLR 21/08 A3023 RMK AO2 T02140083
K5A6 171915Z AUTO 00000KT 10SM CLR 22/09 A3023 RMK AO2 T02170087
K5A6 171855Z AUTO 06003KT 10SM CLR 21/09 A3024 RMK AO2 T02120086
K5A6 171835Z AUTO 10004KT 10SM CLR 21/08 A3025 RMK AO2 T02070084
K5A6 171815Z AUTO 03005KT 10SM CLR 21/09 A3026 RMK AO2 T02070088
K5A6 171755Z AUTO 15004KT 10SM CLR 21/09 A3027 RMK AO2 T02060086 10206 20075
K5A6 171735Z AUTO 15006KT 10SM CLR 20/08 A3028 RMK AO2 T02020084
K5A6 171715Z AUTO 08005KT 10SM CLR 20/08 A3028 RMK AO2 T01960083
K5A6 171655Z AUTO 11004KT 10SM CLR 19/08 A3029 RMK AO2 T01910084
K5A6 171635Z AUTO 14005KT 10SM CLR 18/08 A3030 RMK AO2 T01840083
K5A6 171615Z AUTO 13003KT 10SM CLR 17/08 A3031 RMK AO2 T01720080
K5A6 171555Z AUTO 00000KT 10SM CLR 17/08 A3032 RMK AO2 T01660081
K5A6 171535Z AUTO 13006KT 10SM CLR 16/08 A3032 RMK AO2 T01590075
K5A6 171515Z AUTO 08003KT 10SM CLR 16/07 A3032 RMK AO2 T01550073
K5A6 171455Z AUTO 08005KT 10SM CLR 15/07 A3032 RMK AO2 T01460071
K5A6 171435Z AUTO 09005KT 10SM CLR 14/08 A3032 RMK AO2 T01410075
K5A6 171415Z AUTO 08003KT 10SM CLR 13/07 A3032 RMK AO2 T01290073
K5A6 171355Z AUTO 08006KT 10SM CLR 12/07 A3031 RMK AO2 T01200067
K5A6 171335Z AUTO 07004KT 10SM CLR 11/07 A3030 RMK AO2 T01110069
K5A6 171315Z AUTO 00000KT 10SM CLR 10/07 A3030 RMK AO2 T00960070
K5A6 171255Z AUTO 03005KT 10SM CLR 08/07 A3030 RMK AO2 T00840067
K5A6 171235Z AUTO 03003KT 10SM CLR 08/06 A3029 RMK AO2 T00770064
K5A6 171210Z AUTO 05004KT 10SM CLR 08/06 A3028 RMK AO2 T00780064
K5A6 171150Z AUTO 05003KT 10SM CLR 08/06 A3029 RMK AO2 T00780064 10083 20070
K5A6 171135Z AUTO 03004KT 10SM CLR 08/06 A3028 RMK AO2 T00750059
K5A6 171115Z AUTO 05003KT 10SM CLR 08/07 A3028 RMK AO2 T00800067
K5A6 171055Z AUTO 03004KT 10SM CLR 08/06 A3028 RMK AO2 T00800062
K5A6 171035Z AUTO 03005KT 10SM CLR 07/06 A3027 RMK AO2 T00740061
K5A6 171015Z AUTO 03004KT 10SM CLR 08/07 A3026 RMK AO2 T00770066
K5A6 170955Z AUTO 03006KT 10SM CLR 08/07 A3026 RMK AO2 T00780067
K5A6 170935Z AUTO 03006KT 10SM CLR 08/07 A3025 RMK AO2 T00770065
K5A6 170915Z AUTO 03006KT 10SM CLR 08/06 A3025 RMK AO2 T00760062
K5A6 170855Z AUTO 02004KT 10SM CLR 08/07 A3025 RMK AO2 T00770065
K5A6 170830Z AUTO 02004KT 10SM CLR 08/07 A3026 RMK AO2 T00780065
K5A6 170815Z AUTO 02004KT 10SM CLR 08/07 A3025 RMK AO2 T00770065
K5A6 170755Z AUTO 02004KT 10SM CLR 08/07 A3026 RMK AO2 T00800066
K5A6 170735Z AUTO 03006KT 10SM CLR 08/07 A3026 RMK AO2 T00820068
K5A6 170715Z AUTO 03005KT 10SM CLR 08/07 A3026 RMK AO2 T00780065
K5A6 170655Z AUTO 03005KT 10SM CLR 08/07 A3026 RMK AO2 T00800068
K5A6 170635Z AUTO 02004KT 10SM CLR 07/07 A3026 RMK AO2 T00710065
K5A6 170615Z AUTO 02003KT 10SM CLR 07/07 A3026 RMK AO2 T00700068
K5A6 170555Z AUTO 00000KT 10SM CLR 07/07 A3027 RMK AO2 T00720071 10146 20072 402000072
K5A6 170535Z AUTO 00000KT 10SM CLR 08/07 A3027 RMK AO2 T00780072
K5A6 170515Z AUTO 00000KT 10SM CLR 08/07 A3027 RMK AO2 T00800073
K5A6 170450Z AUTO 00000KT 10SM CLR 08/08 A3027 RMK AO2 T00770075
K5A6 170430Z AUTO 00000KT 10SM CLR 08/08 A3027 RMK AO2 T00800077
K5A6 170415Z AUTO 00000KT 10SM CLR 08/07 A3028 RMK AO2 T00800073
K5A6 170355Z AUTO 00000KT 10SM CLR 08/07 A3028 RMK AO2 T00820072
K5A6 170335Z AUTO 00000KT 10SM CLR 08/08 A3028 RMK AO2 T00820077
K5A6 170315Z AUTO 00000KT 10SM CLR 09/08 A3028 RMK AO2 T00900075
K5A6 170255Z AUTO 00000KT 10SM CLR 10/08 A3028 RMK AO2 T00950075
K5A6 170235Z AUTO 00000KT 10SM CLR 10/08 A3028 RMK AO2 T01000077
K5A6 170215Z AUTO 00000KT 10SM CLR 10/08 A3027 RMK AO2 T01030077
K5A6 170155Z AUTO 03004KT 10SM CLR 11/07 A3026 RMK AO2 T01100069
K5A6 170135Z AUTO 02003KT 10SM CLR 12/07 A3026 RMK AO2 T01160071
K5A6 170110Z AUTO 00000KT 10SM CLR 12/08 A3025 RMK AO2 T01160080
K5A6 170055Z AUTO 04003KT 10SM CLR 13/08 A3025 RMK AO2 T01290075
K5A6 170035Z AUTO 02004KT 10SM CLR 13/07 A3024 RMK AO2 T01300072
K5A6 170015Z AUTO 36003KT 10SM CLR 14/07 A3023 RMK AO2 T01380067
K5A6 162355Z AUTO 36003KT 10SM CLR 15/07 A3023 RMK AO2 T01480065 10200 20148
K5A6 162335Z AUTO 36004KT 10SM CLR 16/06 A3023 RMK AO2 T01560063
K5A6 162315Z AUTO 36004KT 10SM CLR 16/06 A3022 RMK AO2 T01620062
K5A6 162255Z AUTO 02008KT 10SM CLR 18/06 A3022 RMK AO2 T01770056
K5A6 162235Z AUTO 01006KT 10SM CLR 18/06 A3021 RMK AO2 T01830057
K5A6 162215Z AUTO 36009G14KT 10SM CLR 19/06 A3021 RMK AO2 T01870056
K5A6 162155Z AUTO 36008G16KT 10SM CLR 19/06 A3021 RMK AO2 T01900058
K5A6 162135Z AUTO 01010G16KT 10SM CLR 19/06 A3021 RMK AO2 T01940059
K5A6 162115Z AUTO 36010G18KT 10SM CLR 20/06 A3021 RMK AO2 T01950058
K5A6 162055Z AUTO 02013G17KT 10SM CLR 20/06 A3021 RMK AO2 T01960060
K5A6 162030Z AUTO 01011G19KT 10SM CLR 20/06 A3022 RMK AO2 T01980059
K5A6 162015Z AUTO 02012G16KT 10SM CLR 20/06 A3022 RMK AO2 T01970061
K5A6 161950Z AUTO 02011G19KT 10SM CLR 20/05 A3023 RMK AO2 T01960049
K5A6 161930Z AUTO 36013G16KT 330V030 10SM CLR 20/06 A3023 RMK AO2 T01960058
K5A6 161915Z AUTO 36005KT 10SM CLR 19/06 A3024 RMK AO2 T01890060
K5A6 161855Z AUTO 36013G16KT 320V020 10SM CLR 19/06 A3025 RMK AO2 T01920062
K5A6 161835Z AUTO 01010G15KT 10SM CLR 19/06 A3026 RMK AO2 T01900062
K5A6 161815Z AUTO 02008G15KT 10SM CLR 18/06 A3027 RMK AO2 T01820060
K5A6 161755Z AUTO 03010G15KT 10SM CLR 18/07 A3028 RMK AO2 T01770065 10178 20093
K5A6 161735Z AUTO 36011G17KT 10SM CLR 18/07 A3029 RMK AO2 T01750067
K5A6 161710Z AUTO 05009G17KT 10SM CLR 17/06 A3030 RMK AO2 T01680064
K5A6 161655Z AUTO 04009G14KT 10SM CLR 17/07 A3031 RMK AO2 T01660065
K5A6 161615Z AUTO 03014G18KT 10SM CLR 15/07 A3031 RMK AO2 T01530069
K5A6 161555Z AUTO 02014G18KT 10SM CLR 15/07 A3031 RMK AO2 T01500072
K5A6 161535Z AUTO 04015G20KT 10SM CLR 14/07 A3032 RMK AO2 T01410072
K5A6 161515Z AUTO 04010G20KT 10SM CLR 14/08 A3031 RMK AO2 T01350076
K5A6 161455Z AUTO 03014G21KT 10SM CLR 13/08 A3031 RMK AO2 T01310076
K5A6 161435Z AUTO 04014G19KT 10SM CLR 12/08 A3031 RMK AO2 T01240077
K5A6 161415Z AUTO 02015KT 10SM CLR 12/08 A3031 RMK AO2 T01210080
K5A6 161355Z AUTO 02011KT 10SM CLR 11/08 A3031 RMK AO2 T01140080
K5A6 161335Z AUTO 02011G18KT 10SM CLR 11/09 A3030 RMK AO2 T01080086
K5A6 161310Z AUTO 02010G17KT 10SM CLR 10/09 A3030 RMK AO2 T01000085
K5A6 161255Z AUTO 02007KT 10SM CLR 10/09 A3029 RMK AO2 T00970087
K5A6 161235Z AUTO 02007KT 10SM CLR 09/09 A3029 RMK AO2 T00940086
K5A6 161215Z AUTO 02008KT 10SM CLR 10/09 A3028 RMK AO2 T00950086
K5A6 161155Z AUTO 01007KT 10SM CLR 10/09 A3028 RMK AO2 70003 T00960086 10130 20096
K5A6 161135Z AUTO 01007KT 10SM CLR 10/09 A3028 RMK AO2 T00970090
K5A6 161115Z AUTO 02009KT 10SM CLR 10/09 A3027 RMK AO2 T00990090
K5A6 161055Z AUTO 02007KT 10SM CLR 10/09 A3026 RMK AO2 T00980091